createdAt,value
2022-11-09T00:00:07.089Z,12.59
2022-11-09T00:00:19.582Z,12.59
2022-11-09T00:00:31.511Z,12.59
2022-11-09T00:00:44.296Z,12.59
2022-11-09T00:01:01.298Z,12.58
2022-11-09T00:01:13.225Z,12.57
2022-11-09T00:01:27.351Z,12.57
2022-11-09T00:01:39.546Z,12.57
2022-11-09T00:01:51.546Z,12.58
2022-11-09T00:02:05.376Z,12.58
2022-11-09T00:02:17.284Z,12.58
2022-11-09T00:02:29.203Z,12.58
2022-11-09T00:02:43.975Z,12.58
2022-11-09T00:02:56.043Z,12.55
2022-11-09T00:03:08.092Z,12.51
2022-11-09T00:03:20.345Z,12.49
2022-11-09T00:03:32.627Z,12.48
2022-11-09T00:03:44.765Z,12.45
2022-11-09T00:04:01.946Z,12.46
2022-11-09T00:04:13.888Z,12.45
2022-11-09T00:04:25.812Z,12.43
2022-11-09T00:04:37.713Z,12.43
2022-11-09T00:04:49.686Z,12.41
2022-11-09T00:05:01.638Z,12.37
2022-11-09T00:05:13.555Z,12.38
2022-11-09T00:05:25.456Z,12.38
2022-11-09T00:05:37.964Z,12.38
2022-11-09T00:05:57.086Z,12.39
2022-11-09T00:06:09.215Z,12.41
2022-11-09T00:06:21.160Z,12.39
2022-11-09T00:06:34.003Z,12.41
2022-11-09T00:06:46.013Z,12.43
2022-11-09T00:06:58.052Z,12.44
2022-11-09T00:07:10.130Z,12.47
2022-11-09T00:07:22.201Z,12.48
2022-11-09T00:07:34.132Z,12.47
2022-11-09T00:07:46.086Z,12.47
2022-11-09T00:07:57.993Z,12.44
2022-11-09T00:08:11.446Z,12.42
2022-11-09T00:08:23.439Z,12.38
2022-11-09T00:08:37.691Z,12.38
2022-11-09T00:08:49.696Z,12.32
2022-11-09T00:09:07.431Z,12.30
2022-11-09T00:09:19.922Z,12.27
2022-11-09T00:09:31.934Z,12.25
2022-11-09T00:09:43.923Z,12.22
2022-11-09T00:09:55.922Z,12.18
2022-11-09T00:10:08.242Z,12.17
2022-11-09T00:10:20.267Z,12.17
2022-11-09T00:10:33.102Z,12.18
2022-11-09T00:10:45.037Z,12.18
2022-11-09T00:11:03.751Z,12.22
2022-11-09T00:11:16.069Z,12.25
2022-11-09T00:11:28.053Z,12.26
2022-11-09T00:11:39.958Z,12.28
2022-11-09T00:11:53.870Z,12.26
2022-11-09T00:12:07.402Z,12.26
2022-11-09T00:12:19.347Z,12.29
2022-11-09T00:12:31.263Z,12.31
2022-11-09T00:12:43.168Z,12.33
2022-11-09T00:12:55.067Z,12.35
2022-11-09T00:13:07.001Z,12.36
2022-11-09T00:13:19.234Z,12.37
2022-11-09T00:13:31.808Z,12.37
2022-11-09T00:13:44.952Z,12.39
2022-11-09T00:13:56.924Z,12.41
2022-11-09T00:14:14.288Z,12.40
2022-11-09T00:14:26.214Z,12.40
2022-11-09T00:14:38.745Z,12.43
2022-11-09T00:14:50.674Z,12.43
2022-11-09T00:15:02.613Z,12.43
2022-11-09T00:15:14.548Z,12.39
2022-11-09T00:15:26.462Z,12.43
2022-11-09T00:15:38.366Z,12.35
2022-11-09T00:15:50.399Z,12.32
2022-11-09T00:16:02.363Z,12.29
2022-11-09T00:16:16.760Z,12.28
2022-11-09T00:16:28.873Z,12.23
2022-11-09T00:16:40.882Z,12.22
2022-11-09T00:16:52.820Z,12.22
2022-11-09T00:17:04.910Z,12.24
2022-11-09T00:17:16.855Z,12.27
2022-11-09T00:17:28.773Z,12.27
2022-11-09T00:17:40.678Z,12.27
2022-11-09T00:17:52.592Z,12.27
2022-11-09T00:18:04.554Z,12.28
2022-11-09T00:18:16.472Z,12.30
2022-11-09T00:18:29.631Z,12.31
2022-11-09T00:18:47.253Z,12.33
2022-11-09T00:18:59.329Z,12.34
2022-11-09T00:19:13.197Z,12.35
2022-11-09T00:19:25.160Z,12.37
2022-11-09T00:19:37.157Z,12.37
2022-11-09T00:19:49.048Z,12.35
2022-11-09T00:20:00.967Z,12.36
2022-11-09T00:20:12.949Z,12.34
2022-11-09T00:20:24.859Z,12.26
2022-11-09T00:20:36.780Z,12.17
2022-11-09T00:20:48.831Z,12.18
2022-11-09T00:21:08.839Z,12.16
2022-11-09T00:21:23.215Z,12.13
2022-11-09T00:21:35.239Z,12.05
2022-11-09T00:21:47.222Z,12.03
2022-11-09T00:21:59.147Z,11.97
2022-11-09T00:22:11.144Z,11.96
2022-11-09T00:22:23.068Z,11.93
2022-11-09T00:22:35.008Z,11.94
2022-11-09T00:22:50.275Z,11.96
2022-11-09T00:23:02.213Z,11.96
2022-11-09T00:23:14.233Z,11.95
2022-11-09T00:23:26.156Z,11.93
2022-11-09T00:23:38.355Z,11.92
2022-11-09T00:23:51.092Z,11.87
2022-11-09T00:24:03.135Z,11.88
2022-11-09T00:24:15.257Z,11.89
2022-11-09T00:24:27.144Z,11.91
2022-11-09T00:24:39.080Z,11.90
2022-11-09T00:24:51.019Z,11.91
2022-11-09T00:25:02.942Z,11.91
2022-11-09T00:25:15.296Z,11.89
2022-11-09T00:25:27.251Z,11.87
2022-11-09T00:25:39.177Z,11.87
2022-11-09T00:25:51.152Z,11.88
2022-11-09T00:26:05.066Z,11.89
2022-11-09T00:26:18.588Z,11.92
2022-11-09T00:26:30.510Z,11.92
2022-11-09T00:26:42.818Z,11.87
2022-11-09T00:26:54.764Z,11.88
2022-11-09T00:27:06.679Z,11.87
2022-11-09T00:27:18.588Z,11.84
2022-11-09T00:27:30.503Z,11.87
2022-11-09T00:27:42.506Z,11.90
2022-11-09T00:27:54.439Z,11.94
2022-11-09T00:28:06.427Z,11.97
2022-11-09T00:28:18.355Z,12.02
2022-11-09T00:28:30.347Z,12.05
2022-11-09T00:28:42.294Z,12.07
2022-11-09T00:28:54.308Z,12.08
2022-11-09T00:29:06.411Z,12.06
2022-11-09T00:29:18.353Z,12.08
2022-11-09T00:29:30.334Z,12.12
2022-11-09T00:29:42.337Z,12.15
2022-11-09T00:29:54.255Z,12.17
2022-11-09T00:30:07.023Z,12.11
2022-11-09T00:30:19.033Z,12.03
2022-11-09T00:30:31.425Z,11.94
2022-11-09T00:30:43.437Z,11.93
2022-11-09T00:31:05.841Z,11.88
2022-11-09T00:31:20.571Z,11.88
2022-11-09T00:31:32.562Z,11.89
2022-11-09T00:31:44.484Z,11.84
2022-11-09T00:31:56.393Z,11.85
2022-11-09T00:32:08.312Z,11.89
2022-11-09T00:32:25.220Z,11.92
2022-11-09T00:32:39.636Z,11.89
2022-11-09T00:32:51.567Z,11.89
2022-11-09T00:33:03.555Z,11.92
2022-11-09T00:33:15.528Z,11.87
2022-11-09T00:33:27.692Z,11.90
2022-11-09T00:33:39.685Z,11.93
2022-11-09T00:33:54.203Z,11.99
2022-11-09T00:34:06.106Z,12.04
2022-11-09T00:34:18.029Z,12.08
2022-11-09T00:34:29.936Z,12.09
2022-11-09T00:34:41.937Z,12.14
2022-11-09T00:34:53.845Z,12.18
2022-11-09T00:35:06.168Z,12.20
2022-11-09T00:35:18.064Z,12.21
2022-11-09T00:35:30.040Z,12.23
2022-11-09T00:35:41.958Z,12.27
2022-11-09T00:35:54.786Z,12.27
2022-11-09T00:36:10.302Z,12.30
2022-11-09T00:36:24.250Z,12.34
2022-11-09T00:36:36.185Z,12.37
2022-11-09T00:36:48.100Z,12.40
2022-11-09T00:36:59.986Z,12.42
2022-11-09T00:37:11.957Z,12.44
2022-11-09T00:37:24.156Z,12.47
2022-11-09T00:37:36.209Z,12.51
2022-11-09T00:37:48.222Z,12.53
2022-11-09T00:38:00.276Z,12.55
2022-11-09T00:38:12.235Z,12.57
2022-11-09T00:38:24.243Z,12.60
2022-11-09T00:38:37.382Z,12.62
2022-11-09T00:38:52.482Z,12.61
2022-11-09T00:39:04.535Z,12.58
2022-11-09T00:39:16.537Z,12.53
2022-11-09T00:39:28.452Z,12.54
2022-11-09T00:39:40.354Z,12.54
2022-11-09T00:39:52.245Z,12.55
2022-11-09T00:40:04.528Z,12.51
2022-11-09T00:40:16.642Z,12.52
2022-11-09T00:40:28.546Z,12.54
2022-11-09T00:40:40.471Z,12.56
2022-11-09T00:40:52.462Z,12.58
2022-11-09T00:41:05.594Z,12.61
2022-11-09T00:41:17.789Z,12.62
2022-11-09T00:41:29.693Z,12.63
2022-11-09T00:41:41.656Z,12.65
2022-11-09T00:41:53.581Z,12.66
2022-11-09T00:42:07.231Z,12.68
2022-11-09T00:42:19.144Z,12.70
2022-11-09T00:42:31.069Z,12.70
2022-11-09T00:42:42.986Z,12.67
2022-11-09T00:42:54.901Z,12.65
2022-11-09T00:43:06.804Z,12.64
2022-11-09T00:43:19.192Z,12.66
2022-11-09T00:43:31.322Z,12.66
2022-11-09T00:43:43.215Z,12.67
2022-11-09T00:43:55.354Z,12.68
2022-11-09T00:44:07.541Z,12.67
2022-11-09T00:44:19.556Z,12.65
2022-11-09T00:44:31.539Z,12.65
2022-11-09T00:44:43.435Z,12.63
2022-11-09T00:44:55.396Z,12.64
2022-11-09T00:45:07.808Z,12.66
2022-11-09T00:45:20.300Z,12.67
2022-11-09T00:45:32.247Z,12.67
2022-11-09T00:45:44.215Z,12.70
2022-11-09T00:45:56.203Z,12.71
2022-11-09T00:46:08.730Z,12.73
2022-11-09T00:46:21.006Z,12.75
2022-11-09T00:46:33.290Z,12.76
2022-11-09T00:46:45.474Z,12.77
2022-11-09T00:46:57.407Z,12.78
2022-11-09T00:47:09.321Z,12.78
2022-11-09T00:47:21.227Z,12.77
2022-11-09T00:47:33.204Z,12.73
2022-11-09T00:47:45.096Z,12.71
2022-11-09T00:47:57.012Z,12.72
2022-11-09T00:48:09.207Z,12.72
2022-11-09T00:48:21.503Z,12.71
2022-11-09T00:48:34.067Z,12.68
2022-11-09T00:48:46.504Z,12.68
2022-11-09T00:48:58.499Z,12.69
2022-11-09T00:49:10.391Z,12.70
2022-11-09T00:49:22.338Z,12.71
2022-11-09T00:49:34.355Z,12.67
2022-11-09T00:49:46.292Z,12.64
2022-11-09T00:49:58.225Z,12.63
2022-11-09T00:50:10.293Z,12.60
2022-11-09T00:50:22.186Z,12.63
2022-11-09T00:50:34.163Z,12.62
2022-11-09T00:50:53.096Z,12.64
2022-11-09T00:51:05.630Z,12.68
2022-11-09T00:51:18.484Z,12.69
2022-11-09T00:51:30.378Z,12.71
2022-11-09T00:51:42.296Z,12.75
2022-11-09T00:51:54.534Z,12.76
2022-11-09T00:52:06.460Z,12.75
2022-11-09T00:52:18.356Z,12.77
2022-11-09T00:52:30.279Z,12.73
2022-11-09T00:52:42.803Z,12.72
2022-11-09T00:52:54.708Z,12.70
2022-11-09T00:53:06.645Z,12.69
2022-11-09T00:53:19.783Z,12.69
2022-11-09T00:53:32.716Z,12.65
2022-11-09T00:53:48.125Z,12.65
2022-11-09T00:54:00.013Z,12.68
2022-11-09T00:54:12.148Z,12.69
2022-11-09T00:54:24.209Z,12.69
2022-11-09T00:54:36.352Z,12.67
2022-11-09T00:54:48.252Z,12.68
2022-11-09T00:55:00.185Z,12.69
2022-11-09T00:55:12.104Z,12.69
2022-11-09T00:55:24.475Z,12.70
2022-11-09T00:55:36.417Z,12.69
2022-11-09T00:56:01.817Z,12.65
2022-11-09T00:56:14.454Z,12.66
2022-11-09T00:56:26.351Z,12.65
2022-11-09T00:56:38.314Z,12.58
2022-11-09T00:56:50.232Z,12.52
2022-11-09T00:57:02.201Z,12.50
2022-11-09T00:57:14.174Z,12.54
2022-11-09T00:57:26.055Z,12.53
2022-11-09T00:57:38.009Z,12.54
2022-11-09T00:57:50.796Z,12.52
2022-11-09T00:58:02.695Z,12.50
2022-11-09T00:58:14.576Z,12.51
2022-11-09T00:58:28.399Z,12.49
2022-11-09T00:58:41.042Z,12.48
2022-11-09T00:58:55.545Z,12.51
2022-11-09T00:59:10.607Z,12.49
2022-11-09T00:59:22.533Z,12.45
2022-11-09T00:59:34.441Z,12.49
2022-11-09T00:59:46.468Z,12.49
2022-11-09T00:59:58.368Z,12.44
2022-11-09T01:00:11.195Z,12.41
2022-11-09T01:00:25.738Z,12.46
2022-11-09T01:00:37.633Z,12.51
2022-11-09T01:00:49.906Z,12.54
2022-11-09T01:01:13.751Z,12.55
2022-11-09T01:01:25.910Z,12.56
2022-11-09T01:01:38.038Z,12.59
2022-11-09T01:01:50.066Z,12.59
2022-11-09T01:02:02.005Z,12.60
2022-11-09T01:02:13.919Z,12.57
2022-11-09T01:02:25.909Z,12.52
2022-11-09T01:02:37.817Z,12.52
2022-11-09T01:02:50.280Z,12.47
2022-11-09T01:03:02.187Z,12.44
2022-11-09T01:03:14.153Z,12.45
2022-11-09T01:03:27.097Z,12.41
2022-11-09T01:03:39.493Z,12.46
2022-11-09T01:03:51.790Z,12.48
2022-11-09T01:04:03.701Z,12.49
2022-11-09T01:04:15.599Z,12.50
2022-11-09T01:04:27.823Z,12.48
2022-11-09T01:04:39.740Z,12.49
2022-11-09T01:04:51.631Z,12.51
2022-11-09T01:05:03.869Z,12.53
2022-11-09T01:05:15.963Z,12.54
2022-11-09T01:05:27.902Z,12.51
2022-11-09T01:05:39.861Z,12.53
2022-11-09T01:05:52.516Z,12.55
2022-11-09T01:06:05.249Z,12.52
2022-11-09T01:06:25.544Z,12.55
2022-11-09T01:06:37.536Z,12.55
2022-11-09T01:06:49.653Z,12.58
2022-11-09T01:07:01.639Z,12.60
2022-11-09T01:07:13.600Z,12.63
2022-11-09T01:07:25.731Z,12.65
2022-11-09T01:07:38.171Z,12.69
2022-11-09T01:07:50.208Z,12.70
2022-11-09T01:08:02.271Z,12.71
2022-11-09T01:08:14.581Z,12.74
2022-11-09T01:08:26.570Z,12.77
2022-11-09T01:08:38.591Z,12.78
2022-11-09T01:08:50.980Z,12.79
2022-11-09T01:09:03.014Z,12.79
2022-11-09T01:09:14.916Z,12.79
2022-11-09T01:09:26.873Z,12.79
2022-11-09T01:09:39.061Z,12.79
2022-11-09T01:09:51.064Z,12.79
2022-11-09T01:10:04.033Z,12.82
2022-11-09T01:10:15.980Z,12.80
2022-11-09T01:10:27.900Z,12.82
2022-11-09T01:10:42.647Z,12.84
2022-11-09T01:10:54.575Z,12.83
2022-11-09T01:11:09.253Z,12.86
2022-11-09T01:11:22.609Z,12.87
2022-11-09T01:11:34.580Z,12.88
2022-11-09T01:11:46.553Z,12.89
2022-11-09T01:11:58.525Z,12.90
2022-11-09T01:12:10.447Z,12.92
2022-11-09T01:12:22.358Z,12.93
2022-11-09T01:12:34.594Z,12.93
2022-11-09T01:12:46.579Z,12.95
2022-11-09T01:12:58.525Z,12.97
2022-11-09T01:13:12.519Z,12.98
2022-11-09T01:13:24.421Z,12.99
2022-11-09T01:13:37.629Z,13.00
2022-11-09T01:13:49.807Z,13.01
2022-11-09T01:14:02.176Z,12.99
2022-11-09T01:14:14.091Z,12.99
2022-11-09T01:14:26.095Z,12.99
2022-11-09T01:14:38.025Z,12.98
2022-11-09T01:14:49.963Z,13.00
2022-11-09T01:15:01.865Z,13.00
2022-11-09T01:15:13.886Z,12.97
2022-11-09T01:15:26.222Z,12.91
2022-11-09T01:15:48.254Z,12.77
2022-11-09T01:16:00.310Z,12.72
2022-11-09T01:16:17.430Z,12.72
2022-11-09T01:16:29.404Z,12.71
2022-11-09T01:16:41.335Z,12.61
2022-11-09T01:16:53.281Z,12.58
2022-11-09T01:17:05.239Z,12.60
2022-11-09T01:17:17.195Z,12.62
2022-11-09T01:17:29.117Z,12.64
2022-11-09T01:17:41.099Z,12.65
2022-11-09T01:17:53.024Z,12.63
2022-11-09T01:18:05.025Z,12.62
2022-11-09T01:18:19.784Z,12.62
2022-11-09T01:18:31.806Z,12.59
2022-11-09T01:18:44.138Z,12.55
2022-11-09T01:18:57.811Z,12.55
2022-11-09T01:19:09.846Z,12.57
2022-11-09T01:19:21.786Z,12.59
2022-11-09T01:19:33.693Z,12.62
2022-11-09T01:19:45.604Z,12.63
2022-11-09T01:19:57.512Z,12.64
2022-11-09T01:20:10.157Z,12.65
2022-11-09T01:20:22.092Z,12.68
2022-11-09T01:20:34.026Z,12.65
2022-11-09T01:20:49.082Z,12.67
2022-11-09T01:21:03.445Z,12.67
2022-11-09T01:21:15.885Z,12.68
2022-11-09T01:21:29.550Z,12.70
2022-11-09T01:21:41.574Z,12.71
2022-11-09T01:21:53.512Z,12.74
2022-11-09T01:22:05.447Z,12.75
2022-11-09T01:22:19.070Z,12.78
2022-11-09T01:22:31.033Z,12.79
2022-11-09T01:22:43.159Z,12.82
2022-11-09T01:22:55.087Z,12.84
2022-11-09T01:23:08.146Z,12.87
2022-11-09T01:23:21.423Z,12.86
2022-11-09T01:23:34.356Z,12.88
2022-11-09T01:23:46.400Z,12.83
2022-11-09T01:23:58.916Z,12.83
2022-11-09T01:24:10.844Z,12.84
2022-11-09T01:24:22.879Z,12.84
2022-11-09T01:24:34.787Z,12.86
2022-11-09T01:24:46.748Z,12.85
2022-11-09T01:24:58.668Z,12.85
2022-11-09T01:25:10.586Z,12.87
2022-11-09T01:25:22.547Z,12.87
2022-11-09T01:25:34.756Z,12.88
2022-11-09T01:25:46.716Z,12.85
2022-11-09T01:26:00.764Z,12.84
2022-11-09T01:26:14.381Z,12.83
2022-11-09T01:26:26.429Z,12.84
2022-11-09T01:26:38.346Z,12.81
2022-11-09T01:26:50.280Z,12.83
2022-11-09T01:27:02.206Z,12.84
2022-11-09T01:27:14.190Z,12.85
2022-11-09T01:27:26.144Z,12.84
2022-11-09T01:27:38.080Z,12.85
2022-11-09T01:27:49.981Z,12.87
2022-11-09T01:28:02.186Z,12.88
2022-11-09T01:28:14.147Z,12.90
2022-11-09T01:28:26.407Z,12.89
2022-11-09T01:28:38.625Z,12.89
2022-11-09T01:28:50.568Z,12.90
2022-11-09T01:29:02.715Z,12.92
2022-11-09T01:29:14.651Z,12.92
2022-11-09T01:29:26.621Z,12.96
2022-11-09T01:29:38.603Z,12.97
2022-11-09T01:29:50.509Z,12.96
2022-11-09T01:30:02.852Z,12.96
2022-11-09T01:30:14.773Z,12.97
2022-11-09T01:30:26.732Z,12.96
2022-11-09T01:30:41.652Z,12.94
2022-11-09T01:30:54.072Z,12.96
2022-11-09T01:31:12.145Z,12.94
2022-11-09T01:31:24.132Z,12.97
2022-11-09T01:31:36.052Z,12.97
2022-11-09T01:31:48.905Z,12.96
2022-11-09T01:32:00.807Z,12.94
2022-11-09T01:32:12.712Z,12.95
2022-11-09T01:32:24.638Z,12.96
2022-11-09T01:32:36.553Z,12.94
2022-11-09T01:32:48.465Z,12.92
2022-11-09T01:33:00.414Z,12.92
2022-11-09T01:33:12.499Z,12.92
2022-11-09T01:33:24.416Z,12.93
2022-11-09T01:33:37.042Z,12.91
2022-11-09T01:33:49.104Z,12.90
2022-11-09T01:34:00.995Z,12.89
2022-11-09T01:34:13.008Z,12.91
2022-11-09T01:34:24.937Z,12.92
2022-11-09T01:34:36.917Z,12.95
2022-11-09T01:34:48.825Z,12.96
2022-11-09T01:35:00.795Z,12.97
2022-11-09T01:35:12.744Z,12.96
2022-11-09T01:35:24.652Z,12.96
2022-11-09T01:35:38.365Z,12.97
2022-11-09T01:35:50.300Z,12.98
2022-11-09T01:36:07.466Z,13.01
2022-11-09T01:36:22.290Z,13.02
2022-11-09T01:36:34.220Z,13.02
2022-11-09T01:36:46.147Z,13.02
2022-11-09T01:36:59.152Z,13.03
2022-11-09T01:37:11.061Z,13.03
2022-11-09T01:37:23.296Z,13.03
2022-11-09T01:37:35.226Z,13.03
2022-11-09T01:37:47.165Z,13.03
2022-11-09T01:37:59.114Z,13.02
2022-11-09T01:38:11.085Z,13.04
2022-11-09T01:38:23.065Z,13.02
2022-11-09T01:38:38.266Z,13.00
2022-11-09T01:38:50.892Z,13.01
2022-11-09T01:39:02.887Z,13.02
2022-11-09T01:39:14.820Z,12.99
2022-11-09T01:39:26.765Z,13.02
2022-11-09T01:39:38.680Z,13.01
2022-11-09T01:39:50.600Z,13.02
2022-11-09T01:40:02.617Z,13.04
2022-11-09T01:40:14.770Z,13.04
2022-11-09T01:40:28.325Z,13.06
2022-11-09T01:40:40.657Z,13.07
2022-11-09T01:40:52.555Z,13.08
2022-11-09T01:41:06.140Z,13.08
2022-11-09T01:41:19.878Z,13.11
2022-11-09T01:41:31.800Z,13.10
2022-11-09T01:41:43.751Z,13.10
2022-11-09T01:41:55.685Z,13.10
2022-11-09T01:42:07.593Z,13.12
2022-11-09T01:42:26.388Z,13.13
2022-11-09T01:42:39.117Z,13.14
2022-11-09T01:42:51.041Z,13.16
2022-11-09T01:43:15.123Z,13.17
2022-11-09T01:43:27.358Z,13.18
2022-11-09T01:43:39.414Z,13.21
2022-11-09T01:44:03.404Z,13.22
2022-11-09T01:44:19.578Z,13.22
2022-11-09T01:44:32.096Z,13.22
2022-11-09T01:44:44.014Z,13.23
2022-11-09T01:45:17.558Z,13.22
2022-11-09T01:45:30.991Z,13.21
2022-11-09T01:45:48.641Z,13.19
2022-11-09T01:46:05.543Z,13.22
2022-11-09T01:46:24.886Z,13.23
2022-11-09T01:46:45.418Z,13.23
2022-11-09T01:47:03.389Z,13.24
2022-11-09T01:47:24.799Z,13.24
2022-11-09T01:47:36.720Z,13.26
2022-11-09T01:47:58.637Z,13.25
2022-11-09T01:48:18.324Z,13.26
2022-11-09T01:48:47.867Z,13.27
2022-11-09T01:49:05.303Z,13.28
2022-11-09T01:49:40.835Z,13.29
2022-11-09T01:49:56.571Z,13.31
2022-11-09T01:50:11.780Z,13.31
2022-11-09T01:50:32.376Z,13.30
2022-11-09T01:51:19.989Z,13.30
2022-11-09T01:51:38.178Z,13.30
2022-11-09T01:51:56.189Z,13.31
2022-11-09T01:52:13.962Z,13.30
2022-11-09T01:52:32.322Z,13.28
2022-11-09T01:52:48.105Z,13.28
2022-11-09T01:53:03.900Z,13.27
2022-11-09T01:53:20.957Z,13.27
2022-11-09T01:53:36.895Z,13.28
2022-11-09T01:53:52.920Z,13.27
2022-11-09T01:54:30.191Z,13.29
2022-11-09T01:54:45.976Z,13.30
2022-11-09T01:55:03.122Z,13.31
2022-11-09T01:55:23.112Z,13.31
2022-11-09T01:55:36.000Z,13.30
2022-11-09T01:55:52.834Z,13.30
2022-11-09T01:56:09.050Z,13.30
2022-11-09T01:56:21.017Z,13.30
2022-11-09T01:56:33.380Z,13.30
2022-11-09T01:56:48.420Z,13.30
2022-11-09T01:57:05.889Z,13.30
2022-11-09T01:57:41.237Z,13.31
2022-11-09T01:58:27.709Z,13.31
2022-11-09T01:59:51.590Z,13.32
2022-11-09T02:00:07.953Z,13.30
2022-11-09T02:00:20.403Z,13.28
2022-11-09T02:00:34.700Z,13.29
2022-11-09T02:00:50.121Z,13.27
2022-11-09T02:01:02.945Z,13.25
2022-11-09T02:01:17.650Z,13.23
2022-11-09T02:01:31.328Z,13.19
2022-11-09T02:01:44.046Z,13.21
2022-11-09T02:01:56.756Z,13.22
2022-11-09T02:02:09.260Z,13.22
2022-11-09T02:02:21.832Z,13.22
2022-11-09T02:02:35.281Z,13.22
2022-11-09T02:03:02.604Z,13.23
2022-11-09T02:03:30.977Z,13.25
2022-11-09T02:03:54.077Z,13.24
2022-11-09T02:04:11.764Z,13.24
2022-11-09T02:04:30.416Z,13.24
2022-11-09T02:04:55.461Z,13.23
2022-11-09T02:05:12.408Z,13.23
2022-11-09T02:05:28.065Z,13.21
2022-11-09T02:05:41.771Z,13.23
2022-11-09T02:05:54.031Z,13.24
2022-11-09T02:06:10.086Z,13.25
2022-11-09T02:06:25.549Z,13.25
2022-11-09T02:06:37.720Z,13.25
2022-11-09T02:06:50.650Z,13.26
2022-11-09T02:07:03.076Z,13.26
2022-11-09T02:07:15.282Z,13.26
2022-11-09T02:07:27.808Z,13.25
2022-11-09T02:07:41.370Z,13.25
2022-11-09T02:07:55.177Z,13.23
2022-11-09T02:08:08.858Z,13.20
2022-11-09T02:08:25.073Z,13.19
2022-11-09T02:08:37.454Z,13.18
2022-11-09T02:08:49.567Z,13.16
2022-11-09T02:09:10.010Z,13.17
2022-11-09T02:09:51.464Z,13.18
2022-11-09T02:10:14.829Z,13.18
2022-11-09T02:10:35.619Z,13.17
2022-11-09T02:11:07.434Z,13.13
2022-11-09T02:11:20.941Z,13.12
2022-11-09T02:11:34.697Z,13.14
2022-11-09T02:11:46.652Z,13.14
2022-11-09T02:11:59.382Z,13.15
2022-11-09T02:12:11.441Z,13.15
2022-11-09T02:12:25.258Z,13.15
2022-11-09T02:12:37.370Z,13.08
2022-11-09T02:12:49.941Z,13.04
2022-11-09T02:13:03.372Z,13.03
2022-11-09T02:13:19.017Z,13.03
2022-11-09T02:13:33.121Z,13.03
2022-11-09T02:13:51.703Z,13.04
2022-11-09T02:14:06.428Z,13.08
2022-11-09T02:14:20.666Z,13.08
2022-11-09T02:14:33.897Z,13.11
2022-11-09T02:14:49.213Z,13.11
2022-11-09T02:15:05.358Z,13.12
2022-11-09T02:15:17.361Z,13.13
2022-11-09T02:15:29.970Z,13.15
2022-11-09T02:15:45.688Z,13.15
2022-11-09T02:15:58.977Z,13.15
2022-11-09T02:16:13.299Z,13.16
2022-11-09T02:16:26.516Z,13.18
2022-11-09T02:16:40.246Z,13.18
2022-11-09T02:16:52.326Z,13.21
2022-11-09T02:17:05.103Z,13.21
2022-11-09T02:17:18.641Z,13.22
2022-11-09T02:17:31.037Z,13.24
2022-11-09T02:17:44.183Z,13.24
2022-11-09T02:17:58.197Z,13.23
2022-11-09T02:18:10.900Z,13.21
2022-11-09T02:18:23.063Z,13.22
2022-11-09T02:18:36.580Z,13.19
2022-11-09T02:18:56.528Z,13.21
2022-11-09T02:19:08.515Z,13.21
2022-11-09T02:19:20.438Z,13.22
2022-11-09T02:19:32.351Z,13.22
2022-11-09T02:19:44.261Z,13.22
2022-11-09T02:19:58.637Z,13.21
2022-11-09T02:20:15.478Z,13.23
2022-11-09T02:20:28.405Z,13.22
2022-11-09T02:20:49.476Z,13.23
2022-11-09T02:21:01.559Z,13.25
2022-11-09T02:21:13.505Z,13.25
2022-11-09T02:21:28.396Z,13.26
2022-11-09T02:21:40.389Z,13.27
2022-11-09T02:21:52.334Z,13.28
2022-11-09T02:22:04.391Z,13.28
2022-11-09T02:22:16.701Z,13.27
2022-11-09T02:22:28.606Z,13.27
2022-11-09T02:22:41.611Z,13.28
2022-11-09T02:22:53.585Z,13.29
2022-11-09T02:23:05.542Z,13.29
2022-11-09T02:23:19.268Z,13.30
2022-11-09T02:23:31.468Z,13.31
2022-11-09T02:23:43.435Z,13.31
2022-11-09T02:23:55.944Z,13.32
2022-11-09T02:24:08.040Z,13.31
2022-11-09T02:24:20.043Z,13.31
2022-11-09T02:24:33.107Z,13.29
2022-11-09T02:24:45.277Z,13.26
2022-11-09T02:24:57.194Z,13.24
2022-11-09T02:25:10.445Z,13.23
2022-11-09T02:25:22.468Z,13.21
2022-11-09T02:25:34.369Z,13.21
2022-11-09T02:25:54.008Z,13.22
2022-11-09T02:26:10.690Z,13.23
2022-11-09T02:26:25.078Z,13.22
2022-11-09T02:26:47.614Z,13.24
2022-11-09T02:26:59.872Z,13.24
2022-11-09T02:27:11.814Z,13.24
2022-11-09T02:27:24.352Z,13.26
2022-11-09T02:27:37.602Z,13.25
2022-11-09T02:27:50.139Z,13.24
2022-11-09T02:28:02.155Z,13.26
2022-11-09T02:28:16.289Z,13.27
2022-11-09T02:28:28.881Z,13.26
2022-11-09T02:28:42.303Z,13.24
2022-11-09T02:28:56.204Z,13.23
2022-11-09T02:29:12.066Z,13.22
2022-11-09T02:29:28.420Z,13.23
2022-11-09T02:29:46.513Z,13.22
2022-11-09T02:30:00.036Z,13.22
2022-11-09T02:30:13.530Z,13.21
2022-11-09T02:30:25.707Z,13.19
2022-11-09T02:30:38.894Z,13.19
2022-11-09T02:30:53.604Z,13.19
2022-11-09T02:31:08.297Z,13.17
2022-11-09T02:31:22.463Z,13.18
2022-11-09T02:31:38.679Z,13.18
2022-11-09T02:32:02.374Z,13.19
2022-11-09T02:32:20.893Z,13.18
2022-11-09T02:32:33.197Z,13.21
2022-11-09T02:32:45.096Z,13.21
2022-11-09T02:32:57.003Z,13.23
2022-11-09T02:33:08.903Z,13.23
2022-11-09T02:33:21.677Z,13.25
2022-11-09T02:34:11.798Z,13.26
2022-11-09T02:34:24.735Z,13.28
2022-11-09T02:34:36.712Z,13.29
2022-11-09T02:34:48.665Z,13.30
2022-11-09T02:35:00.634Z,13.31
2022-11-09T02:35:13.451Z,13.30
2022-11-09T02:35:25.354Z,13.31
2022-11-09T02:35:37.308Z,13.30
2022-11-09T02:35:49.309Z,13.31
2022-11-09T02:36:01.232Z,13.31
2022-11-09T02:36:13.169Z,13.32
2022-11-09T02:36:25.353Z,13.34
2022-11-09T02:36:37.400Z,13.35
2022-11-09T02:36:49.346Z,13.33
2022-11-09T02:37:01.291Z,13.33
2022-11-09T02:37:13.240Z,13.33
2022-11-09T02:37:27.974Z,13.33
2022-11-09T02:37:49.885Z,13.33
2022-11-09T02:38:01.889Z,13.32
2022-11-09T02:38:15.191Z,13.34
2022-11-09T02:38:27.103Z,13.32
2022-11-09T02:38:39.012Z,13.32
2022-11-09T02:38:54.535Z,13.30
2022-11-09T02:39:06.891Z,13.31
2022-11-09T02:39:23.040Z,13.33
2022-11-09T02:39:35.258Z,13.34
2022-11-09T02:39:47.228Z,13.33
2022-11-09T02:40:01.387Z,13.32
2022-11-09T02:40:19.329Z,13.33
2022-11-09T02:40:36.509Z,13.33
2022-11-09T02:40:51.386Z,13.33
2022-11-09T02:41:03.766Z,13.34
2022-11-09T02:41:16.448Z,13.34
2022-11-09T02:41:31.782Z,13.34
2022-11-09T02:41:52.115Z,13.32
2022-11-09T02:42:19.934Z,13.34
2022-11-09T02:42:33.693Z,13.36
2022-11-09T02:42:45.804Z,13.36
2022-11-09T02:42:57.812Z,13.37
2022-11-09T02:43:11.983Z,13.38
2022-11-09T02:43:24.194Z,13.39
2022-11-09T02:43:36.817Z,13.42
2022-11-09T02:43:51.479Z,13.42
2022-11-09T02:44:03.527Z,13.42
2022-11-09T02:44:16.532Z,13.43
2022-11-09T02:44:30.237Z,13.44
2022-11-09T02:44:47.804Z,13.44
2022-11-09T02:45:00.222Z,13.44
2022-11-09T02:45:12.469Z,13.44
2022-11-09T02:45:24.426Z,13.44
2022-11-09T02:45:37.173Z,13.44
2022-11-09T02:45:49.168Z,13.45
2022-11-09T02:46:01.183Z,13.44
2022-11-09T02:46:13.096Z,13.43
2022-11-09T02:46:34.229Z,13.43
2022-11-09T02:46:46.526Z,13.43
2022-11-09T02:46:58.456Z,13.41
2022-11-09T02:47:10.458Z,13.41
2022-11-09T02:47:22.438Z,13.41
2022-11-09T02:47:34.418Z,13.38
2022-11-09T02:47:46.354Z,13.38
2022-11-09T02:47:58.348Z,13.39
2022-11-09T02:48:10.276Z,13.39
2022-11-09T02:48:22.159Z,13.39
2022-11-09T02:48:34.089Z,13.40
2022-11-09T02:48:46.000Z,13.41
2022-11-09T02:48:57.909Z,13.40
2022-11-09T02:49:09.933Z,13.43
2022-11-09T02:49:21.923Z,13.40
2022-11-09T02:49:33.902Z,13.43
2022-11-09T02:49:45.884Z,13.42
2022-11-09T02:49:57.947Z,13.43
2022-11-09T02:50:10.361Z,13.43
2022-11-09T02:50:22.339Z,13.44
2022-11-09T02:50:36.107Z,13.44
2022-11-09T02:50:48.001Z,13.45
2022-11-09T02:50:59.895Z,13.45
2022-11-09T02:51:11.812Z,13.45
2022-11-09T02:51:23.732Z,13.45
2022-11-09T02:51:35.733Z,13.44
2022-11-09T02:51:47.648Z,13.45
2022-11-09T02:51:59.561Z,13.45
2022-11-09T02:52:11.487Z,13.45
2022-11-09T02:52:24.023Z,13.45
2022-11-09T02:52:35.996Z,13.44
2022-11-09T02:52:48.005Z,13.44
2022-11-09T02:52:59.928Z,13.42
2022-11-09T02:53:11.841Z,13.43
2022-11-09T02:53:23.823Z,13.43
2022-11-09T02:53:35.836Z,13.42
2022-11-09T02:53:47.808Z,13.41
2022-11-09T02:53:59.733Z,13.43
2022-11-09T02:54:11.714Z,13.44
2022-11-09T02:54:23.777Z,13.45
2022-11-09T02:54:35.806Z,13.45
2022-11-09T02:54:47.740Z,13.43